ADDS METAR Data INFO
IDs: Format: Raw Decoded Include TAF

Data at: 0236 UTC 21 Nov 2017

KPWG 210156Z AUTO 17005KT 10SM CLR 11/01 A3000 RMK AO2 SLP175 T01110011
KPWG 210056Z AUTO 14005KT 10SM CLR 12/01 A3001 RMK AO2 SLP179 T01170006
KPWG 202356Z AUTO 18005KT 10SM CLR 14/00 A3001 RMK AO2 SLP179 T01440000 10194 20144 56004
KPWG 202256Z AUTO 18010KT 10SM CLR 18/00 A3002 RMK AO2 SLP182 T01780000
KPWG 202156Z AUTO 20012G18KT 10SM CLR 19/M01 A3002 RMK AO2 SLP183 T01891006
KPWG 202056Z AUTO 18012G18KT 10SM CLR 19/M01 A3002 RMK AO2 SLP184 T01891006 56043
KPWG 201956Z AUTO 19011KT 10SM CLR 18/00 A3006 RMK AO2 SLP195 T01830000
KPWG 201856Z AUTO 18012G20KT 10SM CLR 18/01 A3009 RMK AO2 SLP208 T01780011
KPWG 201756Z AUTO 16016G19KT 10SM CLR 17/01 A3015 RMK AO2 SLP229 T01720011 10172 20017 58022
KPWG 201656Z AUTO 18014G19KT 10SM CLR 16/01 A3019 RMK AO2 SLP241 T01610011
KPWG 201556Z AUTO 16004KT 10SM CLR 13/03 A3021 RMK AO2 SLP251 T01280028
KPWG 201456Z AUTO 14004KT 10SM CLR 08/02 A3022 RMK AO2 LTG DSNT S SLP251 T00830017 51012
KPWG 201356Z AUTO 10SM CLR 03/01 A3022 RMK AO2 SLP250 T00280011 $
KPWG 201256Z AUTO 25004KT 10SM CLR 03/00 A3021 RMK AO2 SLP249 T00280000
KPWG 201156Z AUTO 22003KT 10SM CLR 03/M01 A3019 RMK AO2 SLP239 T00281006 10044 20017 56009 TSNO
KPWG 201056Z AUTO 00000KT 10SM CLR 03/00 A3019 RMK AO2 SLP239 T00280000
KPWG 200956Z AUTO 21003KT 10SM CLR 02/00 A3019 RMK AO2 SLP240 T00170000 FZRANO
KPWG 200856Z AUTO 00000KT 10SM CLR 03/00 A3021 RMK AO2 SLP249 T00280000 58007
KPWG 200756Z AUTO 00000KT 10SM CLR 03/01 A3022 RMK AO2 SLP253 T00280006
KPWG 200656Z AUTO 00000KT 10SM CLR 03/01 A3023 RMK AO2 SLP255 T00330006
KPWG 200556Z AUTO 00000KT 10SM CLR 04/01 A3023 RMK AO2 SLP257 T00390006 10122 20039 401720028 58007
KPWG 200456Z AUTO 22004KT 10SM CLR 06/00 A3024 RMK AO2 SLP260 T00560000
KPWG 200356Z AUTO 22003KT 10SM CLR 06/00 A3025 RMK AO2 SLP260 T00560000
KPWG 200256Z AUTO 00000KT 10SM CLR 07/00 A3025 RMK AO2 SLP262 T00670000 53001 TSNO
KPWG 200156Z AUTO 00000KT 10SM CLR 08/00 A3025 RMK AO2 SLP262 T00830000
KPWG 200056Z AUTO 00000KT 10SM CLR 10/M01 A3025 RMK AO2 SLP261 T01001006
KPWG 192356Z AUTO 33004KT 10SM CLR 12/M01 A3025 RMK AO2 SLP261 T01221006 10172 20122 55006
KPWG 192256Z AUTO 35004KT 10SM CLR 14/M01 A3025 RMK AO2 SLP262 T01391006
KPWG 192156Z AUTO 05004KT 10SM CLR 16/M02 A3025 RMK AO2 SLP262 T01561022
KPWG 192056Z AUTO 02008KT 10SM CLR 17/M02 A3027 RMK AO2 SLP267 T01671017 56032
KPWG 191956Z AUTO 36005KT 10SM CLR 16/M02 A3029 RMK AO2 SLP275 T01611022
KPWG 191856Z AUTO 03007KT 340V060 10SM CLR 15/M02 A3032 RMK AO2 SLP285 T01501022
KPWG 191756Z AUTO 36007KT 320V030 10SM CLR 16/M02 A3036 RMK AO2 SLP299 T01561022 10156 20028 58016
KPWG 191656Z AUTO 01007KT 10SM CLR 14/00 A3040 RMK AO2 SLP309 T01440000
KPWG 191556Z AUTO 01006KT 10SM CLR 12/03 A3041 RMK AO2 SLP313 T01220028
KPWG 191456Z AUTO 33007KT 10SM CLR 09/03 A3041 RMK AO2 SLP316 T00940028 53025